createdAt,value
2023-02-19T00:00:02.003Z,100106.31
2023-02-19T00:02:30.056Z,100101.16
2023-02-19T00:04:58.042Z,100108.66
2023-02-19T00:07:26.078Z,100102.69
2023-02-19T00:09:54.071Z,100100.03
2023-02-19T00:12:22.166Z,100093.69
2023-02-19T00:14:50.144Z,100097.72
2023-02-19T00:17:18.660Z,100094.69
2023-02-19T00:19:47.024Z,100093.19
2023-02-19T00:22:15.468Z,100083.72
2023-02-19T00:24:44.016Z,100084.56
2023-02-19T00:27:12.412Z,100087.06
2023-02-19T00:29:40.489Z,100094.38
2023-02-19T00:32:08.977Z,100081.06
2023-02-19T00:34:37.610Z,100080.09
2023-02-19T00:37:05.563Z,100080.91
2023-02-19T00:39:33.611Z,100077.91
2023-02-19T00:42:02.052Z,100077.91
2023-02-19T00:44:30.432Z,100082.03
2023-02-19T00:46:58.970Z,100073.22
2023-02-19T00:49:27.385Z,100062.28
2023-02-19T00:51:55.632Z,100060.97
2023-02-19T00:54:24.660Z,100060.69
2023-02-19T00:56:53.100Z,100071.97
2023-02-19T00:59:21.533Z,100080.09
2023-02-19T01:01:50.738Z,100069.19
2023-02-19T01:04:19.246Z,100065.22
2023-02-19T01:06:48.885Z,100062.44
2023-02-19T01:09:17.022Z,100071.09
2023-02-19T01:11:45.093Z,100073.63
2023-02-19T01:14:13.406Z,100060.16
2023-02-19T01:16:41.912Z,100072.97
2023-02-19T01:19:09.948Z,100056.34
2023-02-19T01:21:38.057Z,100061.66
2023-02-19T01:24:06.449Z,100053.03
2023-02-19T01:26:35.096Z,100047.06
2023-02-19T01:29:03.529Z,100036.75
2023-02-19T01:31:40.040Z,100027.16
2023-02-19T01:52:25.768Z,99985.84
2023-02-19T01:55:08.928Z,99978.03
2023-02-19T02:00:54.850Z,99969.09
2023-02-19T02:03:30.229Z,99958.44
2023-02-19T02:09:07.429Z,99957.47
2023-02-19T02:11:36.709Z,99955.78
2023-02-19T02:14:05.962Z,99946.16
2023-02-19T02:17:04.244Z,99926.09
2023-02-19T02:19:51.115Z,99925.94
2023-02-19T02:22:39.420Z,99923.44
2023-02-19T02:25:10.351Z,99918.13
2023-02-19T02:28:09.414Z,99919.28
2023-02-19T02:30:55.977Z,99912.16
2023-02-19T02:33:43.399Z,99899.72
2023-02-19T02:36:19.033Z,99892.56
2023-02-19T02:38:48.897Z,99886.44
2023-02-19T02:41:17.643Z,99883.09
2023-02-19T02:43:45.760Z,99881.63
2023-02-19T02:46:33.225Z,99883.28
2023-02-19T02:49:07.960Z,99880.44
2023-02-19T02:51:50.638Z,99884.75
2023-02-19T02:54:42.782Z,99878.47
2023-02-19T02:57:14.922Z,99880.94
2023-02-19T02:59:44.185Z,99878.28
2023-02-19T03:02:23.646Z,99880.75
2023-02-19T03:05:23.099Z,99875.59
2023-02-19T03:08:07.910Z,99866.00
2023-02-19T03:10:51.872Z,99854.38
2023-02-19T03:13:53.891Z,99842.09
2023-02-19T03:16:47.388Z,99836.78
2023-02-19T03:19:22.265Z,99838.59
2023-02-19T03:22:30.567Z,99834.97
2023-02-19T03:25:40.116Z,99849.94
2023-02-19T03:28:16.057Z,99838.13
2023-02-19T03:30:50.583Z,99842.75
2023-02-19T03:33:24.123Z,99844.63
2023-02-19T03:36:04.073Z,99839.94
2023-02-19T03:38:42.044Z,99842.94
2023-02-19T03:41:59.834Z,99836.81
2023-02-19T03:44:40.979Z,99827.66
2023-02-19T03:47:34.176Z,99815.06
2023-02-19T03:50:08.091Z,99818.69
2023-02-19T03:52:59.881Z,99821.19
2023-02-19T03:56:17.657Z,99817.03
2023-02-19T03:59:00.273Z,99815.56
2023-02-19T04:01:55.275Z,99816.41
2023-02-19T04:04:42.949Z,99819.06
2023-02-19T04:07:11.618Z,99818.41
2023-02-19T04:09:45.908Z,99808.59
2023-02-19T04:12:15.965Z,99816.41
2023-02-19T04:14:51.691Z,99816.19
2023-02-19T04:17:50.284Z,99824.66
2023-02-19T04:20:20.316Z,99836.31
2023-02-19T04:22:50.273Z,99842.59
2023-02-19T04:25:18.915Z,99833.66
2023-02-19T04:27:48.115Z,99843.44
2023-02-19T04:30:16.907Z,99844.91
2023-02-19T04:32:45.391Z,99860.03
2023-02-19T04:35:13.891Z,99857.38
2023-02-19T04:37:42.363Z,99861.84
2023-02-19T04:40:11.708Z,99871.19
2023-02-19T04:42:39.740Z,99872.31
2023-02-19T04:45:08.375Z,99869.53
2023-02-19T04:47:36.853Z,99864.41
2023-02-19T04:50:05.505Z,99867.91
2023-02-19T04:52:34.438Z,99853.63
2023-02-19T04:55:02.928Z,99856.63
2023-02-19T04:57:31.377Z,99848.84
2023-02-19T04:59:59.500Z,99850.66
2023-02-19T05:02:27.640Z,99855.16
2023-02-19T05:04:56.208Z,99861.47
2023-02-19T05:07:24.380Z,99849.16
2023-02-19T05:09:52.490Z,99856.78
2023-02-19T05:12:20.806Z,99862.09
2023-02-19T05:14:49.104Z,99856.78
2023-02-19T05:17:17.592Z,99851.00
2023-02-19T05:19:46.094Z,99855.16
2023-02-19T05:22:14.592Z,99864.75
2023-02-19T05:24:43.167Z,99860.13
2023-02-19T05:27:11.658Z,99862.78
2023-02-19T05:29:40.137Z,99865.25
2023-02-19T05:32:08.772Z,99862.59
2023-02-19T05:34:37.293Z,99868.41
2023-02-19T05:37:05.334Z,99864.75
2023-02-19T05:39:33.867Z,99862.09
2023-02-19T05:42:02.010Z,99860.44
2023-02-19T05:44:30.455Z,99864.56
2023-02-19T05:46:58.977Z,99870.91
2023-02-19T05:49:27.960Z,99873.56
2023-02-19T05:51:56.431Z,99865.88
2023-02-19T05:54:24.898Z,99870.84
2023-02-19T05:56:53.405Z,99867.00
2023-02-19T05:59:25.592Z,99875.66
2023-02-19T06:01:56.042Z,99877.47
2023-02-19T06:04:24.692Z,99885.25
2023-02-19T06:06:52.794Z,99887.75
2023-02-19T06:09:21.133Z,99891.06
2023-02-19T06:11:49.510Z,99891.75
2023-02-19T06:14:18.037Z,99903.19
2023-02-19T06:16:46.538Z,99904.84
2023-02-19T06:19:15.025Z,99910.16
2023-02-19T06:21:46.725Z,99914.63
2023-02-19T06:24:14.822Z,99910.81
2023-02-19T06:26:42.951Z,99916.94
2023-02-19T06:29:11.418Z,99920.44
2023-02-19T06:31:40.167Z,99927.91
2023-02-19T06:34:08.662Z,99941.88
2023-02-19T06:36:37.131Z,99942.69
2023-02-19T06:39:06.949Z,99949.50
2023-02-19T06:41:35.417Z,99959.13
2023-02-19T06:44:04.066Z,99986.69
2023-02-19T06:46:32.550Z,99992.50
2023-02-19T06:49:00.994Z,100002.00
2023-02-19T06:51:29.853Z,100007.81
2023-02-19T06:53:58.455Z,100020.94
2023-02-19T06:56:37.561Z,100021.22
2023-02-19T06:59:09.442Z,100028.16
2023-02-19T07:01:38.632Z,100032.78
2023-02-19T07:04:08.462Z,100042.53
2023-02-19T07:06:37.583Z,100048.63
2023-02-19T07:09:08.150Z,100052.41
2023-02-19T07:11:39.019Z,100069.75
2023-02-19T07:14:10.383Z,100060.88
2023-02-19T07:16:39.445Z,100073.09
2023-02-19T07:19:08.206Z,100074.34
2023-02-19T07:21:37.963Z,100085.41
2023-02-19T07:24:06.823Z,100096.41
2023-02-19T07:26:35.442Z,100112.56
2023-02-19T07:29:04.034Z,100117.72
2023-02-19T07:31:32.596Z,100124.34
2023-02-19T07:34:00.979Z,100123.31
2023-02-19T07:36:29.200Z,100130.41
2023-02-19T07:38:59.040Z,100141.44
2023-02-19T07:41:28.572Z,100146.91
2023-02-19T07:43:57.316Z,100166.31
2023-02-19T07:46:25.935Z,100187.75
2023-02-19T07:48:54.625Z,100189.56
2023-02-19T07:51:23.473Z,100195.59
2023-02-19T07:53:52.350Z,100193.34
2023-02-19T07:56:21.215Z,100200.09
2023-02-19T07:58:49.828Z,100210.22
2023-02-19T08:01:45.340Z,100217.91
2023-02-19T08:04:14.403Z,100226.41
2023-02-19T08:06:43.343Z,100230.00
2023-02-19T08:09:11.816Z,100244.34
2023-02-19T08:11:57.551Z,100248.50
2023-02-19T08:14:29.491Z,100258.56
2023-02-19T08:16:58.386Z,100261.91
2023-02-19T08:19:27.067Z,100267.19
2023-02-19T08:21:55.581Z,100271.91
2023-02-19T08:24:24.243Z,100288.47
2023-02-19T08:26:52.693Z,100290.00
2023-02-19T08:29:21.172Z,100292.78
2023-02-19T08:31:49.778Z,100310.16
2023-02-19T08:34:18.380Z,100328.81
2023-02-19T08:36:46.833Z,100333.66
2023-02-19T08:39:15.313Z,100342.00
2023-02-19T08:41:43.918Z,100354.78
2023-02-19T08:44:12.384Z,100355.97
2023-02-19T08:46:40.852Z,100350.00
2023-02-19T08:49:09.344Z,100353.13
2023-02-19T08:51:37.791Z,100366.78
2023-02-19T08:54:06.352Z,100373.47
2023-02-19T08:56:34.869Z,100377.63
2023-02-19T08:59:03.408Z,100391.28
2023-02-19T09:01:32.145Z,100393.22
2023-02-19T09:04:00.623Z,100402.16
2023-02-19T09:06:29.135Z,100393.81
2023-02-19T09:08:57.579Z,100402.03
2023-02-19T09:11:26.075Z,100410.41
2023-02-19T09:13:57.154Z,100422.22
2023-02-19T09:16:25.589Z,100418.19
2023-02-19T09:18:54.056Z,100431.97
2023-02-19T09:21:22.506Z,100433.66
2023-02-19T09:23:51.024Z,100441.16
2023-02-19T09:26:19.461Z,100444.09
2023-02-19T09:28:47.946Z,100450.94
2023-02-19T09:31:17.450Z,100444.66
2023-02-19T09:33:46.938Z,100444.09
2023-02-19T09:36:17.134Z,100461.19
2023-02-19T09:38:45.991Z,100465.09
2023-02-19T09:41:27.508Z,100474.16
2023-02-19T09:43:56.119Z,100472.88
2023-02-19T09:46:40.067Z,100487.06
2023-02-19T09:49:24.205Z,100483.31
2023-02-19T09:52:00.620Z,100474.28
2023-02-19T09:54:32.277Z,100483.44
2023-02-19T09:57:03.469Z,100484.16
2023-02-19T09:59:45.437Z,100495.63
2023-02-19T10:02:18.873Z,100500.78
2023-02-19T10:04:48.718Z,100505.78
2023-02-19T10:07:24.706Z,100518.88
2023-02-19T10:10:25.836Z,100529.34
2023-02-19T10:13:00.627Z,100524.84
2023-02-19T10:15:38.706Z,100536.44
2023-02-19T10:18:09.505Z,100536.72
2023-02-19T10:20:39.768Z,100545.34
2023-02-19T10:23:12.331Z,100546.72
2023-02-19T10:25:47.167Z,100552.31
2023-02-19T10:28:19.980Z,100552.97
2023-02-19T10:30:56.377Z,100543.94
2023-02-19T10:33:24.865Z,100555.91
2023-02-19T10:35:54.964Z,100558.28
2023-02-19T10:38:31.142Z,100575.69
2023-02-19T10:41:22.020Z,100573.59
2023-02-19T10:43:59.700Z,100580.56
2023-02-19T10:46:44.766Z,100578.22
2023-02-19T10:49:31.252Z,100589.34
2023-02-19T10:52:05.538Z,100581.69
2023-02-19T10:54:35.571Z,100595.03
2023-02-19T10:57:25.339Z,100596.97
2023-02-19T11:00:01.296Z,100605.34
2023-02-19T11:02:31.936Z,100613.84
2023-02-19T11:05:14.811Z,100638.50
2023-02-19T11:07:55.991Z,100632.22
2023-02-19T11:10:27.150Z,100628.75
2023-02-19T11:13:05.705Z,100632.53
2023-02-19T11:15:36.788Z,100634.78
2023-02-19T11:18:13.954Z,100635.44
2023-02-19T11:20:56.367Z,100642.16
2023-02-19T11:23:39.303Z,100655.13
2023-02-19T11:26:24.903Z,100661.25
2023-02-19T11:29:03.048Z,100658.59
2023-02-19T11:31:36.163Z,100650.50
2023-02-19T11:34:21.088Z,100659.69
2023-02-19T11:37:16.932Z,100663.72
2023-02-19T11:39:49.566Z,100666.91
2023-02-19T11:43:02.988Z,100660.78
2023-02-19T11:46:05.499Z,100671.91
2023-02-19T11:48:40.563Z,100676.59
2023-02-19T11:51:41.784Z,100682.59
2023-02-19T11:54:59.191Z,100681.34
2023-02-19T11:58:00.308Z,100676.72
2023-02-19T12:00:32.755Z,100673.53
2023-02-19T12:03:16.161Z,100670.88
2023-02-19T12:05:56.281Z,100663.34
2023-02-19T12:08:52.055Z,100665.66
2023-02-19T12:11:43.162Z,100658.09
2023-02-19T12:14:53.139Z,100670.13
2023-02-19T12:17:53.474Z,100673.19
2023-02-19T12:20:45.604Z,100679.59
2023-02-19T12:23:56.586Z,100686.31
2023-02-19T12:26:36.968Z,100690.63
2023-02-19T12:29:51.913Z,100674.56
2023-02-19T12:32:54.547Z,100685.72
2023-02-19T12:35:28.254Z,100684.59
2023-02-19T12:38:32.568Z,100686.84
2023-02-19T12:41:19.564Z,100696.06
2023-02-19T12:44:24.401Z,100699.16
2023-02-19T12:47:02.336Z,100699.97
2023-02-19T12:49:33.938Z,100690.38
2023-02-19T12:52:21.653Z,100703.63
2023-02-19T12:54:56.578Z,100698.31
2023-02-19T12:57:30.191Z,100698.69
2023-02-19T13:00:07.509Z,100711.38
2023-02-19T13:02:53.400Z,100715.28
2023-02-19T13:05:50.478Z,100721.81
2023-02-19T13:09:05.451Z,100724.84
2023-02-19T13:11:42.974Z,100710.63
2023-02-19T13:14:30.325Z,100704.91
2023-02-19T13:17:27.717Z,100708.53
2023-02-19T13:20:09.719Z,100716.34
2023-02-19T13:23:28.299Z,100720.09
2023-02-19T13:26:33.824Z,100716.88
2023-02-19T13:29:21.031Z,100715.06
2023-02-19T13:32:11.781Z,100721.91
2023-02-19T13:35:29.994Z,100725.44
2023-02-19T13:38:03.400Z,100728.13
2023-02-19T13:40:36.330Z,100735.50
2023-02-19T13:43:08.147Z,100739.16
2023-02-19T13:45:42.662Z,100732.47
2023-02-19T13:48:27.414Z,100737.06
2023-02-19T13:51:14.219Z,100747.13
2023-02-19T13:53:45.661Z,100748.94
2023-02-19T13:56:34.007Z,100743.19
2023-02-19T13:59:39.137Z,100756.31
2023-02-19T14:02:32.590Z,100764.56
2023-02-19T14:05:05.839Z,100761.19
2023-02-19T14:07:48.610Z,100769.13
2023-02-19T14:11:02.303Z,100781.28
2023-02-19T14:13:48.960Z,100777.66
2023-02-19T14:16:38.815Z,100776.69
2023-02-19T14:19:16.985Z,100772.78
2023-02-19T14:21:46.507Z,100769.56
2023-02-19T14:24:16.576Z,100767.47
2023-02-19T14:26:45.294Z,100767.47
2023-02-19T14:29:16.582Z,100772.63
2023-02-19T14:31:47.151Z,100767.31
2023-02-19T14:34:26.924Z,100768.84
2023-02-19T14:37:01.657Z,100768.88
2023-02-19T14:39:39.177Z,100772.78
2023-02-19T14:42:20.215Z,100773.88
2023-02-19T14:44:58.650Z,100771.78
2023-02-19T14:47:30.895Z,100779.59
2023-02-19T14:50:30.194Z,100776.53
2023-02-19T14:53:10.198Z,100769.41
2023-02-19T14:55:42.780Z,100764.66
2023-02-19T14:58:32.051Z,100763.28
2023-02-19T15:01:00.996Z,100769.13
2023-02-19T15:03:30.958Z,100783.38
2023-02-19T15:06:20.218Z,100774.69
2023-02-19T15:08:53.468Z,100775.53
2023-02-19T15:11:25.885Z,100774.03
2023-02-19T15:14:00.147Z,100772.78
2023-02-19T15:16:30.208Z,100775.81
2023-02-19T15:19:00.386Z,100776.66
2023-02-19T15:21:39.297Z,100778.75
2023-02-19T15:24:08.294Z,100778.09
2023-02-19T15:26:41.013Z,100795.22
2023-02-19T15:29:16.303Z,100798.56
2023-02-19T15:32:00.120Z,100791.16
2023-02-19T15:34:32.279Z,100782.94
2023-02-19T15:37:04.165Z,100790.59
2023-02-19T15:39:46.702Z,100793.53
2023-02-19T15:42:26.258Z,100799.66
2023-02-19T15:45:08.131Z,100791.03
2023-02-19T15:47:47.177Z,100798.97
2023-02-19T15:50:19.374Z,100794.50
2023-02-19T15:53:00.331Z,100799.78
2023-02-19T15:55:30.945Z,100797.69
2023-02-19T15:58:20.252Z,100793.41
2023-02-19T16:01:09.931Z,100797.28
2023-02-19T16:03:38.889Z,100792.00
2023-02-19T16:06:17.070Z,100805.22
2023-02-19T16:09:08.355Z,100815.25
2023-02-19T16:11:53.175Z,100814.00
2023-02-19T16:14:30.788Z,100822.91
2023-02-19T16:17:11.304Z,100828.31
2023-02-19T16:19:54.365Z,100818.84
2023-02-19T16:22:29.762Z,100829.03
2023-02-19T16:25:03.327Z,100833.88
2023-02-19T16:27:43.162Z,100833.28
2023-02-19T16:30:29.249Z,100833.72
2023-02-19T16:33:31.882Z,100844.69
2023-02-19T16:36:17.708Z,100837.88
2023-02-19T16:39:07.833Z,100847.75
2023-02-19T16:41:39.330Z,100850.66
2023-02-19T16:44:22.565Z,100854.66
2023-02-19T16:46:53.838Z,100854.94
2023-02-19T16:49:24.483Z,100862.16
2023-02-19T16:51:54.008Z,100874.94
2023-02-19T16:54:23.219Z,100880.75
2023-02-19T16:56:52.300Z,100882.97
2023-02-19T16:59:20.865Z,100884.56
2023-02-19T17:01:49.552Z,100881.50
2023-02-19T17:04:18.169Z,100882.97
2023-02-19T17:06:46.948Z,100879.88
2023-02-19T17:09:15.847Z,100887.22
2023-02-19T17:11:51.203Z,100894.84
2023-02-19T17:14:20.097Z,100897.81
2023-02-19T17:16:48.878Z,100902.41
2023-02-19T17:19:20.691Z,100906.84
2023-02-19T17:21:49.783Z,100901.94
2023-02-19T17:24:18.462Z,100902.66
2023-02-19T17:26:47.108Z,100907.81
2023-02-19T17:29:18.514Z,100920.78
2023-02-19T17:31:47.144Z,100914.63
2023-02-19T17:34:16.507Z,100908.41
2023-02-19T17:38:14.288Z,100908.28
2023-02-19T17:40:45.130Z,100906.13
2023-02-19T17:43:25.398Z,100907.91
2023-02-19T17:45:54.325Z,100925.09
2023-02-19T17:48:22.983Z,100934.13
2023-02-19T17:50:52.363Z,100928.38
2023-02-19T17:53:20.999Z,100930.56
2023-02-19T17:55:49.595Z,100932.28
2023-02-19T17:58:18.153Z,100925.09
2023-02-19T18:00:46.889Z,100926.81
2023-02-19T18:03:15.481Z,100932.94
2023-02-19T18:05:44.268Z,100933.34
2023-02-19T18:08:13.018Z,100933.34
2023-02-19T18:10:41.471Z,100943.25
2023-02-19T18:13:10.540Z,100943.16
2023-02-19T18:15:38.989Z,100937.03
2023-02-19T18:18:09.771Z,100943.41
2023-02-19T18:20:38.556Z,100945.06
2023-02-19T18:23:07.152Z,100945.06
2023-02-19T18:25:35.645Z,100940.88
2023-02-19T18:28:03.729Z,100940.16
2023-02-19T18:30:33.951Z,100953.47
2023-02-19T18:33:02.554Z,100964.28
2023-02-19T18:35:30.992Z,100967.66
2023-02-19T18:37:59.794Z,100960.34
2023-02-19T18:40:28.955Z,100956.16
2023-02-19T18:42:57.596Z,100959.75
2023-02-19T18:45:27.710Z,100951.47
2023-02-19T18:47:56.206Z,100955.09
2023-02-19T18:50:24.669Z,100954.84
2023-02-19T18:52:53.234Z,100954.34
2023-02-19T18:55:22.513Z,100949.06
2023-02-19T18:57:51.359Z,100962.66
2023-02-19T19:00:26.993Z,100968.50
2023-02-19T19:03:00.356Z,100960.38
2023-02-19T19:05:29.465Z,100974.84
2023-02-19T19:07:59.350Z,100976.78
2023-02-19T19:10:29.296Z,100968.03
2023-02-19T19:12:58.803Z,100965.47
2023-02-19T19:15:28.142Z,100949.66
2023-02-19T19:17:57.085Z,100952.44
2023-02-19T19:20:26.089Z,100960.56
2023-02-19T19:22:55.453Z,100967.66
2023-02-19T19:25:24.301Z,100971.13
2023-02-19T19:27:56.660Z,100964.91
2023-02-19T19:30:25.783Z,100968.72
2023-02-19T19:32:54.670Z,100968.47
2023-02-19T19:35:23.910Z,100968.69
2023-02-19T19:37:52.475Z,100964.84
2023-02-19T19:40:21.388Z,100973.97
2023-02-19T19:42:53.319Z,100968.31
2023-02-19T19:45:22.490Z,100958.63
2023-02-19T19:47:51.233Z,100954.19
2023-02-19T19:50:20.002Z,100964.97
2023-02-19T19:52:48.588Z,100963.88
2023-02-19T19:55:17.273Z,100963.38
2023-02-19T19:57:45.781Z,100959.28
2023-02-19T20:00:17.693Z,100960.25
2023-02-19T20:02:47.171Z,100953.41
2023-02-19T20:05:16.954Z,100955.66
2023-02-19T20:07:45.898Z,100952.75
2023-02-19T20:10:15.984Z,100955.00
2023-02-19T20:12:44.558Z,100958.97
2023-02-19T20:15:13.347Z,100961.59
2023-02-19T20:17:41.908Z,100967.34
2023-02-19T20:20:11.154Z,100948.66
2023-02-19T20:22:40.003Z,100945.31
2023-02-19T20:25:08.993Z,100957.75
2023-02-19T20:27:37.472Z,100960.38
2023-02-19T20:30:11.251Z,100957.53
2023-02-19T20:32:40.109Z,100958.28
2023-02-19T20:35:08.885Z,100951.22
2023-02-19T20:37:40.337Z,100954.31
2023-02-19T20:40:09.749Z,100948.72
2023-02-19T20:42:38.409Z,100950.28
2023-02-19T20:45:07.500Z,100957.25
2023-02-19T20:47:37.826Z,100962.28
2023-02-19T20:50:08.337Z,100965.63
2023-02-19T20:52:36.960Z,100964.31
2023-02-19T20:55:05.896Z,100970.97
2023-02-19T20:57:34.415Z,100973.34
2023-02-19T21:00:03.713Z,100976.56
2023-02-19T21:02:32.279Z,100968.41
2023-02-19T21:05:00.955Z,100977.97
2023-02-19T21:07:29.675Z,100986.50
2023-02-19T21:09:58.348Z,100976.75
2023-02-19T21:12:27.045Z,100982.38
2023-02-19T21:14:56.252Z,100976.25
2023-02-19T21:17:24.718Z,100974.94
2023-02-19T21:19:53.324Z,100969.44
2023-02-19T21:22:21.746Z,100977.34
2023-02-19T21:24:53.725Z,100968.88
2023-02-19T21:27:22.855Z,100982.06
2023-02-19T21:29:51.315Z,100978.06
2023-02-19T21:32:19.842Z,100986.72
2023-02-19T21:34:48.859Z,100989.75
2023-02-19T21:37:17.313Z,100983.88
2023-02-19T21:39:46.988Z,100991.75
2023-02-19T21:42:15.458Z,100986.50
2023-02-19T21:44:43.836Z,100985.09
2023-02-19T21:47:13.083Z,100981.75
2023-02-19T21:49:41.841Z,100982.13
2023-02-19T21:52:10.720Z,100987.41
2023-02-19T21:54:39.114Z,100988.72
2023-02-19T21:57:09.385Z,100989.34
2023-02-19T21:59:37.914Z,100966.44
2023-02-19T22:02:06.276Z,100965.59
2023-02-19T22:04:34.644Z,100969.91
2023-02-19T22:07:03.068Z,100974.97
2023-02-19T22:09:49.017Z,100964.16
2023-02-19T22:12:18.255Z,100968.50
2023-02-19T22:14:46.883Z,100974.72
2023-02-19T22:17:15.823Z,100964.53
2023-02-19T22:19:44.312Z,100972.47
2023-02-19T22:22:12.932Z,100951.59
2023-02-19T22:24:41.341Z,100953.03
2023-02-19T22:27:09.849Z,100944.53
2023-02-19T22:29:38.266Z,100942.59
2023-02-19T22:32:07.164Z,100935.63
2023-02-19T22:34:41.833Z,100926.16
2023-02-19T22:37:10.941Z,100927.00
2023-02-19T22:39:39.366Z,100934.78
2023-02-19T22:42:08.020Z,100930.97
2023-02-19T22:44:36.550Z,100938.78
2023-02-19T22:47:05.324Z,100934.19
2023-02-19T22:49:33.718Z,100937.19
2023-02-19T22:52:08.502Z,100936.47
2023-02-19T22:54:37.785Z,100943.09
2023-02-19T22:57:06.507Z,100941.75
2023-02-19T22:59:34.891Z,100938.72
2023-02-19T23:02:03.573Z,100949.06
2023-02-19T23:04:32.217Z,100953.63
2023-02-19T23:07:00.712Z,100943.06
2023-02-19T23:09:30.485Z,100946.53
2023-02-19T23:12:11.361Z,100942.81
2023-02-19T23:14:39.974Z,100940.06
2023-02-19T23:17:08.655Z,100932.75
2023-02-19T23:19:37.964Z,100942.66
2023-02-19T23:22:06.629Z,100945.81
2023-02-19T23:24:35.072Z,100938.47
2023-02-19T23:27:03.476Z,100948.91
2023-02-19T23:29:31.915Z,100942.28
2023-02-19T23:32:01.346Z,100942.88
2023-02-19T23:34:29.828Z,100939.16
2023-02-19T23:36:59.578Z,100935.41
2023-02-19T23:39:28.419Z,100934.47
2023-02-19T23:41:58.541Z,100935.28
2023-02-19T23:44:27.345Z,100936.00
2023-02-19T23:46:55.756Z,100926.88
2023-02-19T23:49:24.195Z,100928.69
2023-02-19T23:51:52.853Z,100927.59
2023-02-19T23:54:21.260Z,100916.75
2023-02-19T23:56:49.678Z,100905.09
2023-02-19T23:59:17.809Z,100893.66
